sensor_id;sensor_type;location;lat;lon;timestamp;P1;durP1;ratioP1;P2;durP2;ratioP2
62880;SDS011;48969;49.934;8.596;2023-02-12T00:01:28;42.13;;;36.70;;
62880;SDS011;48969;49.934;8.596;2023-02-12T00:03:53;42.02;;;36.30;;
62880;SDS011;48969;49.934;8.596;2023-02-12T00:06:19;40.78;;;34.50;;
62880;SDS011;48969;49.934;8.596;2023-02-12T00:08:47;19.85;;;11.70;;
62880;SDS011;48969;49.934;8.596;2023-02-12T00:11:13;40.72;;;36.33;;
62880;SDS011;48969;49.934;8.596;2023-02-12T00:13:39;13.88;;;9.88;;
62880;SDS011;48969;49.934;8.596;2023-02-12T00:16:06;17.40;;;10.38;;
62880;SDS011;48969;49.934;8.596;2023-02-12T00:18:31;39.35;;;35.05;;
62880;SDS011;48969;49.934;8.596;2023-02-12T00:20:57;39.28;;;34.70;;
62880;SDS011;48969;49.934;8.596;2023-02-12T00:23:23;42.47;;;36.53;;
62880;SDS011;48969;49.934;8.596;2023-02-12T00:25:48;20.23;;;10.98;;
62880;SDS011;48969;49.934;8.596;2023-02-12T00:28:13;41.70;;;36.60;;
62880;SDS011;48969;49.934;8.596;2023-02-12T00:30:38;40.95;;;36.55;;
62880;SDS011;48969;49.934;8.596;2023-02-12T00:33:03;19.08;;;11.43;;
62880;SDS011;48969;49.934;8.596;2023-02-12T00:35:29;40.10;;;35.35;;
62880;SDS011;48969;49.934;8.596;2023-02-12T00:37:54;38.63;;;34.45;;
62880;SDS011;48969;49.934;8.596;2023-02-12T00:40:19;40.60;;;36.17;;
62880;SDS011;48969;49.934;8.596;2023-02-12T00:42:44;38.85;;;34.10;;
62880;SDS011;48969;49.934;8.596;2023-02-12T00:45:09;42.70;;;36.30;;
62880;SDS011;48969;49.934;8.596;2023-02-12T00:47:35;25.52;;;13.50;;
62880;SDS011;48969;49.934;8.596;2023-02-12T00:50:00;41.88;;;37.33;;
62880;SDS011;48969;49.934;8.596;2023-02-12T00:52:25;42.00;;;35.95;;
62880;SDS011;48969;49.934;8.596;2023-02-12T00:54:50;41.15;;;35.65;;
62880;SDS011;48969;49.934;8.596;2023-02-12T00:57:15;37.25;;;33.20;;
62880;SDS011;48969;49.934;8.596;2023-02-12T00:59:40;37.55;;;33.58;;
62880;SDS011;48969;49.934;8.596;2023-02-12T01:02:06;18.48;;;9.85;;
62880;SDS011;48969;49.934;8.596;2023-02-12T01:04:32;38.25;;;33.83;;
62880;SDS011;48969;49.934;8.596;2023-02-12T01:06:57;38.17;;;32.88;;
62880;SDS011;48969;49.934;8.596;2023-02-12T01:09:22;38.47;;;32.33;;
62880;SDS011;48969;49.934;8.596;2023-02-12T01:11:47;36.10;;;32.08;;
62880;SDS011;48969;49.934;8.596;2023-02-12T01:14:13;15.07;;;9.07;;
62880;SDS011;48969;49.934;8.596;2023-02-12T01:16:38;35.70;;;31.50;;
62880;SDS011;48969;49.934;8.596;2023-02-12T01:19:04;36.58;;;32.67;;
62880;SDS011;48969;49.934;8.596;2023-02-12T01:21:30;33.67;;;30.08;;
62880;SDS011;48969;49.934;8.596;2023-02-12T01:23:56;37.78;;;33.38;;
62880;SDS011;48969;49.934;8.596;2023-02-12T01:26:21;39.95;;;35.42;;
62880;SDS011;48969;49.934;8.596;2023-02-12T01:28:50;37.38;;;33.08;;
62880;SDS011;48969;49.934;8.596;2023-02-12T01:31:17;37.97;;;33.65;;
62880;SDS011;48969;49.934;8.596;2023-02-12T01:33:46;38.60;;;33.72;;
62880;SDS011;48969;49.934;8.596;2023-02-12T01:36:11;36.65;;;31.52;;
62880;SDS011;48969;49.934;8.596;2023-02-12T01:38:36;17.50;;;10.18;;
62880;SDS011;48969;49.934;8.596;2023-02-12T01:41:03;36.03;;;32.17;;
62880;SDS011;48969;49.934;8.596;2023-02-12T01:43:28;35.65;;;31.95;;
62880;SDS011;48969;49.934;8.596;2023-02-12T01:45:53;35.95;;;32.03;;
62880;SDS011;48969;49.934;8.596;2023-02-12T01:48:20;35.05;;;31.52;;
62880;SDS011;48969;49.934;8.596;2023-02-12T01:50:45;36.17;;;32.25;;
62880;SDS011;48969;49.934;8.596;2023-02-12T01:53:11;38.67;;;32.53;;
62880;SDS011;48969;49.934;8.596;2023-02-12T01:55:43;36.17;;;31.93;;
62880;SDS011;48969;49.934;8.596;2023-02-12T01:58:08;16.95;;;10.38;;
62880;SDS011;48969;49.934;8.596;2023-02-12T02:00:34;35.25;;;31.38;;
62880;SDS011;48969;49.934;8.596;2023-02-12T02:02:59;36.28;;;31.15;;
62880;SDS011;48969;49.934;8.596;2023-02-12T02:08:09;34.92;;;30.80;;
62880;SDS011;48969;49.934;8.596;2023-02-12T02:10:35;36.33;;;32.42;;
62880;SDS011;48969;49.934;8.596;2023-02-12T02:13:00;33.95;;;30.33;;
62880;SDS011;48969;49.934;8.596;2023-02-12T02:15:46;35.08;;;31.20;;
62880;SDS011;48969;49.934;8.596;2023-02-12T02:18:18;13.98;;;9.63;;
62880;SDS011;48969;49.934;8.596;2023-02-12T02:29:05;35.03;;;30.52;;
62880;SDS011;48969;49.934;8.596;2023-02-12T02:31:40;36.03;;;31.55;;
62880;SDS011;48969;49.934;8.596;2023-02-12T02:41:30;19.65;;;11.38;;
62880;SDS011;48969;49.934;8.596;2023-02-12T02:43:56;39.05;;;33.80;;
62880;SDS011;48969;49.934;8.596;2023-02-12T02:46:25;38.80;;;34.60;;
62880;SDS011;48969;49.934;8.596;2023-02-12T02:48:52;39.75;;;35.47;;
62880;SDS011;48969;49.934;8.596;2023-02-12T02:51:19;19.45;;;9.95;;
62880;SDS011;48969;49.934;8.596;2023-02-12T02:53:46;36.95;;;32.95;;
62880;SDS011;48969;49.934;8.596;2023-02-12T02:56:13;36.45;;;32.55;;
62880;SDS011;48969;49.934;8.596;2023-02-12T02:58:47;39.72;;;34.88;;
62880;SDS011;48969;49.934;8.596;2023-02-12T03:01:25;38.38;;;34.13;;
62880;SDS011;48969;49.934;8.596;2023-02-12T03:03:55;41.95;;;34.97;;
62880;SDS011;48969;49.934;8.596;2023-02-12T03:08:58;38.53;;;34.47;;
62880;SDS011;48969;49.934;8.596;2023-02-12T03:11:25;37.42;;;33.38;;
62880;SDS011;48969;49.934;8.596;2023-02-12T03:13:54;38.75;;;34.55;;
62880;SDS011;48969;49.934;8.596;2023-02-12T03:16:22;41.97;;;37.47;;
62880;SDS011;48969;49.934;8.596;2023-02-12T03:18:51;40.80;;;35.10;;
62880;SDS011;48969;49.934;8.596;2023-02-12T03:21:21;41.40;;;36.92;;
62880;SDS011;48969;49.934;8.596;2023-02-12T03:23:52;43.50;;;36.92;;
62880;SDS011;48969;49.934;8.596;2023-02-12T03:26:23;41.28;;;35.97;;
62880;SDS011;48969;49.934;8.596;2023-02-12T03:28:50;41.83;;;36.65;;
62880;SDS011;48969;49.934;8.596;2023-02-12T03:33:43;40.97;;;35.42;;
62880;SDS011;48969;49.934;8.596;2023-02-12T03:36:22;17.58;;;10.65;;
62880;SDS011;48969;49.934;8.596;2023-02-12T03:38:51;40.05;;;34.72;;
62880;SDS011;48969;49.934;8.596;2023-02-12T03:41:24;40.35;;;35.92;;
62880;SDS011;48969;49.934;8.596;2023-02-12T03:43:55;38.08;;;34.03;;
62880;SDS011;48969;49.934;8.596;2023-02-12T03:46:41;43.28;;;35.47;;
62880;SDS011;48969;49.934;8.596;2023-02-12T03:49:15;40.88;;;35.38;;
62880;SDS011;48969;49.934;8.596;2023-02-12T03:51:44;40.20;;;34.67;;
62880;SDS011;48969;49.934;8.596;2023-02-12T03:54:10;41.60;;;35.95;;
62880;SDS011;48969;49.934;8.596;2023-02-12T03:56:40;39.80;;;35.17;;
62880;SDS011;48969;49.934;8.596;2023-02-12T03:59:07;39.47;;;35.15;;
62880;SDS011;48969;49.934;8.596;2023-02-12T04:01:32;38.38;;;34.22;;
62880;SDS011;48969;49.934;8.596;2023-02-12T04:03:58;39.55;;;35.03;;
62880;SDS011;48969;49.934;8.596;2023-02-12T04:06:24;40.90;;;36.40;;
62880;SDS011;48969;49.934;8.596;2023-02-12T04:08:50;40.92;;;36.17;;
62880;SDS011;48969;49.934;8.596;2023-02-12T04:11:19;41.85;;;36.38;;
62880;SDS011;48969;49.934;8.596;2023-02-12T04:14:01;41.17;;;35.17;;
62880;SDS011;48969;49.934;8.596;2023-02-12T04:16:32;41.60;;;36.33;;
62880;SDS011;48969;49.934;8.596;2023-02-12T04:18:59;41.22;;;35.92;;
62880;SDS011;48969;49.934;8.596;2023-02-12T04:21:35;42.50;;;37.03;;
62880;SDS011;48969;49.934;8.596;2023-02-12T04:24:05;39.22;;;34.53;;
62880;SDS011;48969;49.934;8.596;2023-02-12T04:26:41;19.27;;;10.82;;
62880;SDS011;48969;49.934;8.596;2023-02-12T04:31:48;38.80;;;34.47;;
62880;SDS011;48969;49.934;8.596;2023-02-12T04:34:17;40.13;;;33.67;;
62880;SDS011;48969;49.934;8.596;2023-02-12T04:36:44;36.35;;;32.45;;
62880;SDS011;48969;49.934;8.596;2023-02-12T04:39:11;36.70;;;32.75;;
62880;SDS011;48969;49.934;8.596;2023-02-12T04:41:39;36.47;;;32.58;;
62880;SDS011;48969;49.934;8.596;2023-02-12T04:44:23;36.97;;;32.90;;
62880;SDS011;48969;49.934;8.596;2023-02-12T04:46:49;38.35;;;33.90;;
62880;SDS011;48969;49.934;8.596;2023-02-12T04:49:15;39.33;;;34.22;;
62880;SDS011;48969;49.934;8.596;2023-02-12T04:51:40;39.95;;;34.40;;
62880;SDS011;48969;49.934;8.596;2023-02-12T04:54:06;35.83;;;31.92;;
62880;SDS011;48969;49.934;8.596;2023-02-12T04:56:31;37.75;;;33.20;;
62880;SDS011;48969;49.934;8.596;2023-02-12T04:58:56;32.67;;;29.20;;
62880;SDS011;48969;49.934;8.596;2023-02-12T05:01:21;33.22;;;29.60;;
62880;SDS011;48969;49.934;8.596;2023-02-12T05:03:47;32.88;;;29.27;;
62880;SDS011;48969;49.934;8.596;2023-02-12T05:06:12;34.90;;;30.60;;
62880;SDS011;48969;49.934;8.596;2023-02-12T05:08:37;37.10;;;32.30;;
62880;SDS011;48969;49.934;8.596;2023-02-12T05:11:03;35.20;;;31.45;;
62880;SDS011;48969;49.934;8.596;2023-02-12T05:13:28;35.90;;;31.65;;
62880;SDS011;48969;49.934;8.596;2023-02-12T05:15:53;36.45;;;32.45;;
62880;SDS011;48969;49.934;8.596;2023-02-12T05:18:18;18.23;;;11.23;;
62880;SDS011;48969;49.934;8.596;2023-02-12T05:20:44;35.92;;;32.08;;
62880;SDS011;48969;49.934;8.596;2023-02-12T05:23:09;36.97;;;33.03;;
62880;SDS011;48969;49.934;8.596;2023-02-12T05:25:34;36.40;;;32.42;;
62880;SDS011;48969;49.934;8.596;2023-02-12T05:27:59;25.70;;;12.43;;
62880;SDS011;48969;49.934;8.596;2023-02-12T05:30:25;17.75;;;9.45;;
62880;SDS011;48969;49.934;8.596;2023-02-12T05:32:50;33.78;;;30.25;;
62880;SDS011;48969;49.934;8.596;2023-02-12T05:35:15;37.42;;;33.42;;
62880;SDS011;48969;49.934;8.596;2023-02-12T05:37:40;38.63;;;33.08;;
62880;SDS011;48969;49.934;8.596;2023-02-12T05:40:05;37.55;;;32.97;;
62880;SDS011;48969;49.934;8.596;2023-02-12T05:42:32;17.05;;;10.38;;
62880;SDS011;48969;49.934;8.596;2023-02-12T05:44:57;37.65;;;33.55;;
62880;SDS011;48969;49.934;8.596;2023-02-12T05:47:23;16.63;;;9.88;;
62880;SDS011;48969;49.934;8.596;2023-02-12T05:49:48;40.78;;;36.33;;
62880;SDS011;48969;49.934;8.596;2023-02-12T05:52:13;38.10;;;34.00;;
62880;SDS011;48969;49.934;8.596;2023-02-12T05:54:38;36.83;;;32.83;;
62880;SDS011;48969;49.934;8.596;2023-02-12T05:57:03;39.60;;;34.15;;
62880;SDS011;48969;49.934;8.596;2023-02-12T05:59:30;37.97;;;33.92;;
62880;SDS011;48969;49.934;8.596;2023-02-12T06:01:56;37.47;;;33.38;;
62880;SDS011;48969;49.934;8.596;2023-02-12T06:04:21;36.53;;;32.13;;
62880;SDS011;48969;49.934;8.596;2023-02-12T06:06:47;33.25;;;29.50;;
62880;SDS011;48969;49.934;8.596;2023-02-12T06:09:12;19.00;;;9.50;;
62880;SDS011;48969;49.934;8.596;2023-02-12T06:11:38;35.58;;;31.80;;
62880;SDS011;48969;49.934;8.596;2023-02-12T06:14:03;37.15;;;32.03;;
62880;SDS011;48969;49.934;8.596;2023-02-12T06:16:29;18.90;;;12.35;;
62880;SDS011;48969;49.934;8.596;2023-02-12T06:18:54;14.98;;;8.60;;
62880;SDS011;48969;49.934;8.596;2023-02-12T06:21:20;39.47;;;33.65;;
62880;SDS011;48969;49.934;8.596;2023-02-12T06:23:46;39.30;;;35.08;;
62880;SDS011;48969;49.934;8.596;2023-02-12T06:26:11;39.83;;;34.42;;
62880;SDS011;48969;49.934;8.596;2023-02-12T06:28:37;40.90;;;36.42;;
62880;SDS011;48969;49.934;8.596;2023-02-12T06:31:02;40.03;;;35.72;;
62880;SDS011;48969;49.934;8.596;2023-02-12T06:33:27;39.47;;;35.25;;
62880;SDS011;48969;49.934;8.596;2023-02-12T06:35:53;40.70;;;36.35;;
62880;SDS011;48969;49.934;8.596;2023-02-12T06:38:18;15.90;;;10.12;;
62880;SDS011;48969;49.934;8.596;2023-02-12T06:40:43;15.63;;;8.23;;
62880;SDS011;48969;49.934;8.596;2023-02-12T06:43:08;17.45;;;8.30;;
62880;SDS011;48969;49.934;8.596;2023-02-12T06:45:34;41.74;;;37.26;;
62880;SDS011;48969;49.934;8.596;2023-02-12T06:47:59;14.13;;;8.70;;
62880;SDS011;48969;49.934;8.596;2023-02-12T06:50:24;22.77;;;10.32;;
62880;SDS011;48969;49.934;8.596;2023-02-12T06:52:49;44.00;;;39.10;;
62880;SDS011;48969;49.934;8.596;2023-02-12T06:55:14;42.67;;;36.13;;
62880;SDS011;48969;49.934;8.596;2023-02-12T06:57:40;16.20;;;10.02;;
62880;SDS011;48969;49.934;8.596;2023-02-12T07:00:05;39.65;;;34.97;;
62880;SDS011;48969;49.934;8.596;2023-02-12T07:02:31;20.67;;;10.30;;
62880;SDS011;48969;49.934;8.596;2023-02-12T07:04:56;40.92;;;35.90;;
62880;SDS011;48969;49.934;8.596;2023-02-12T07:07:21;39.92;;;35.58;;
62880;SDS011;48969;49.934;8.596;2023-02-12T07:09:46;21.20;;;11.95;;
62880;SDS011;48969;49.934;8.596;2023-02-12T07:12:11;42.26;;;37.00;;
62880;SDS011;48969;49.934;8.596;2023-02-12T07:14:37;19.88;;;10.93;;
62880;SDS011;48969;49.934;8.596;2023-02-12T07:17:02;42.15;;;37.65;;
62880;SDS011;48969;49.934;8.596;2023-02-12T07:19:29;16.25;;;9.70;;
62880;SDS011;48969;49.934;8.596;2023-02-12T07:21:54;41.38;;;37.10;;
62880;SDS011;48969;49.934;8.596;2023-02-12T07:24:20;14.57;;;9.63;;
62880;SDS011;48969;49.934;8.596;2023-02-12T07:26:45;18.75;;;10.45;;
62880;SDS011;48969;49.934;8.596;2023-02-12T07:29:10;45.47;;;40.22;;
62880;SDS011;48969;49.934;8.596;2023-02-12T07:31:36;45.97;;;40.97;;
62880;SDS011;48969;49.934;8.596;2023-02-12T07:34:01;22.98;;;12.30;;
62880;SDS011;48969;49.934;8.596;2023-02-12T07:36:28;45.45;;;40.60;;
62880;SDS011;48969;49.934;8.596;2023-02-12T07:38:54;44.88;;;39.65;;
62880;SDS011;48969;49.934;8.596;2023-02-12T07:41:20;45.05;;;39.40;;
62880;SDS011;48969;49.934;8.596;2023-02-12T07:43:46;43.97;;;39.15;;
62880;SDS011;48969;49.934;8.596;2023-02-12T07:46:13;43.10;;;38.50;;
62880;SDS011;48969;49.934;8.596;2023-02-12T07:48:39;44.47;;;38.92;;
62880;SDS011;48969;49.934;8.596;2023-02-12T07:51:08;43.83;;;39.13;;
62880;SDS011;48969;49.934;8.596;2023-02-12T07:53:34;20.70;;;11.85;;
62880;SDS011;48969;49.934;8.596;2023-02-12T07:56:05;46.63;;;41.63;;
62880;SDS011;48969;49.934;8.596;2023-02-12T07:58:31;18.37;;;11.27;;
62880;SDS011;48969;49.934;8.596;2023-02-12T08:00:56;43.97;;;39.17;;
62880;SDS011;48969;49.934;8.596;2023-02-12T08:03:21;49.17;;;43.58;;
62880;SDS011;48969;49.934;8.596;2023-02-12T08:05:46;49.78;;;44.48;;
62880;SDS011;48969;49.934;8.596;2023-02-12T08:08:11;49.17;;;43.92;;
62880;SDS011;48969;49.934;8.596;2023-02-12T08:10:37;30.30;;;12.48;;
62880;SDS011;48969;49.934;8.596;2023-02-12T08:13:02;21.75;;;13.88;;
62880;SDS011;48969;49.934;8.596;2023-02-12T08:15:27;55.55;;;49.60;;
62880;SDS011;48969;49.934;8.596;2023-02-12T08:17:52;57.13;;;50.83;;
62880;SDS011;48969;49.934;8.596;2023-02-12T08:20:19;25.83;;;16.63;;
62880;SDS011;48969;49.934;8.596;2023-02-12T08:22:44;56.08;;;48.83;;
62880;SDS011;48969;49.934;8.596;2023-02-12T08:25:09;57.70;;;50.05;;
62880;SDS011;48969;49.934;8.596;2023-02-12T08:27:34;58.06;;;51.50;;
62880;SDS011;48969;49.934;8.596;2023-02-12T08:30:00;33.50;;;15.52;;
62880;SDS011;48969;49.934;8.596;2023-02-12T08:32:25;59.13;;;49.70;;
62880;SDS011;48969;49.934;8.596;2023-02-12T08:34:50;60.85;;;50.67;;
62880;SDS011;48969;49.934;8.596;2023-02-12T08:37:15;24.50;;;14.23;;
62880;SDS011;48969;49.934;8.596;2023-02-12T08:39:40;59.05;;;50.33;;
62880;SDS011;48969;49.934;8.596;2023-02-12T08:42:05;63.35;;;52.03;;
62880;SDS011;48969;49.934;8.596;2023-02-12T08:44:31;64.43;;;51.30;;
62880;SDS011;48969;49.934;8.596;2023-02-12T08:46:56;63.50;;;52.22;;
62880;SDS011;48969;49.934;8.596;2023-02-12T08:49:22;65.22;;;51.92;;
62880;SDS011;48969;49.934;8.596;2023-02-12T08:51:52;60.20;;;50.42;;
62880;SDS011;48969;49.934;8.596;2023-02-12T08:54:18;33.88;;;18.90;;
62880;SDS011;48969;49.934;8.596;2023-02-12T08:56:44;69.28;;;52.83;;
62880;SDS011;48969;49.934;8.596;2023-02-12T08:59:10;68.70;;;54.10;;
62880;SDS011;48969;49.934;8.596;2023-02-12T09:01:36;71.65;;;53.50;;
62880;SDS011;48969;49.934;8.596;2023-02-12T09:04:02;68.55;;;52.33;;
62880;SDS011;48969;49.934;8.596;2023-02-12T09:06:28;23.50;;;12.63;;
62880;SDS011;48969;49.934;8.596;2023-02-12T09:08:55;72.25;;;53.08;;
62880;SDS011;48969;49.934;8.596;2023-02-12T09:11:22;71.80;;;55.25;;
62880;SDS011;48969;49.934;8.596;2023-02-12T09:13:50;76.60;;;56.58;;
62880;SDS011;48969;49.934;8.596;2023-02-12T09:16:15;74.78;;;55.83;;
62880;SDS011;48969;49.934;8.596;2023-02-12T09:18:41;77.65;;;55.60;;
62880;SDS011;48969;49.934;8.596;2023-02-12T09:21:07;73.53;;;55.72;;
62880;SDS011;48969;49.934;8.596;2023-02-12T09:23:32;76.63;;;55.75;;
62880;SDS011;48969;49.934;8.596;2023-02-12T09:25:58;31.63;;;16.48;;
62880;SDS011;48969;49.934;8.596;2023-02-12T09:28:23;76.95;;;53.75;;
62880;SDS011;48969;49.934;8.596;2023-02-12T09:30:48;75.15;;;52.72;;
62880;SDS011;48969;49.934;8.596;2023-02-12T09:33:13;77.18;;;54.30;;
62880;SDS011;48969;49.934;8.596;2023-02-12T09:35:39;78.68;;;53.83;;
62880;SDS011;48969;49.934;8.596;2023-02-12T09:38:05;69.15;;;50.03;;
62880;SDS011;48969;49.934;8.596;2023-02-12T09:40:55;44.53;;;19.50;;
62880;SDS011;48969;49.934;8.596;2023-02-12T09:46:04;72.60;;;51.17;;
62880;SDS011;48969;49.934;8.596;2023-02-12T09:51:03;74.38;;;49.72;;
62880;SDS011;48969;49.934;8.596;2023-02-12T09:53:31;72.05;;;50.17;;
62880;SDS011;48969;49.934;8.596;2023-02-12T09:55:59;69.25;;;47.88;;
62880;SDS011;48969;49.934;8.596;2023-02-12T09:59:07;68.97;;;48.35;;
62880;SDS011;48969;49.934;8.596;2023-02-12T10:01:13;72.07;;;48.08;;
62880;SDS011;48969;49.934;8.596;2023-02-12T10:03:39;74.07;;;49.90;;
62880;SDS011;48969;49.934;8.596;2023-02-12T10:06:10;69.72;;;47.97;;
62880;SDS011;48969;49.934;8.596;2023-02-12T10:18:36;64.22;;;45.08;;
62880;SDS011;48969;49.934;8.596;2023-02-12T10:21:19;64.78;;;44.58;;
62880;SDS011;48969;49.934;8.596;2023-02-12T10:26:17;65.35;;;45.53;;
62880;SDS011;48969;49.934;8.596;2023-02-12T10:28:43;62.88;;;43.40;;
62880;SDS011;48969;49.934;8.596;2023-02-12T10:36:01;62.25;;;43.08;;
62880;SDS011;48969;49.934;8.596;2023-02-12T10:38:29;62.10;;;43.80;;
62880;SDS011;48969;49.934;8.596;2023-02-12T10:40:56;60.72;;;42.47;;
62880;SDS011;48969;49.934;8.596;2023-02-12T10:43:25;67.68;;;44.90;;
62880;SDS011;48969;49.934;8.596;2023-02-12T10:45:50;62.17;;;43.20;;
62880;SDS011;48969;49.934;8.596;2023-02-12T10:48:21;57.47;;;40.28;;
62880;SDS011;48969;49.934;8.596;2023-02-12T10:53:17;59.95;;;40.40;;
62880;SDS011;48969;49.934;8.596;2023-02-12T10:55:42;58.42;;;40.78;;
62880;SDS011;48969;49.934;8.596;2023-02-12T10:58:15;57.53;;;41.08;;
62880;SDS011;48969;49.934;8.596;2023-02-12T11:00:42;56.78;;;40.13;;
62880;SDS011;48969;49.934;8.596;2023-02-12T11:05:36;57.13;;;40.97;;
62880;SDS011;48969;49.934;8.596;2023-02-12T11:08:02;59.55;;;41.40;;
62880;SDS011;48969;49.934;8.596;2023-02-12T11:10:31;57.20;;;40.42;;
62880;SDS011;48969;49.934;8.596;2023-02-12T11:12:58;54.60;;;39.90;;
62880;SDS011;48969;49.934;8.596;2023-02-12T11:15:24;57.13;;;41.08;;
62880;SDS011;48969;49.934;8.596;2023-02-12T11:18:03;58.40;;;41.03;;
62880;SDS011;48969;49.934;8.596;2023-02-12T11:20:32;57.28;;;38.17;;
62880;SDS011;48969;49.934;8.596;2023-02-12T11:23:02;54.88;;;39.45;;
62880;SDS011;48969;49.934;8.596;2023-02-12T11:25:32;56.58;;;38.28;;
62880;SDS011;48969;49.934;8.596;2023-02-12T11:27:58;55.42;;;38.25;;
62880;SDS011;48969;49.934;8.596;2023-02-12T11:30:24;52.38;;;38.10;;
62880;SDS011;48969;49.934;8.596;2023-02-12T11:32:49;53.45;;;39.13;;
62880;SDS011;48969;49.934;8.596;2023-02-12T11:35:17;57.30;;;38.55;;
62880;SDS011;48969;49.934;8.596;2023-02-12T11:37:49;53.90;;;37.28;;
62880;SDS011;48969;49.934;8.596;2023-02-12T11:40:19;53.97;;;38.70;;
62880;SDS011;48969;49.934;8.596;2023-02-12T11:42:49;59.22;;;40.13;;
62880;SDS011;48969;49.934;8.596;2023-02-12T11:45:17;58.10;;;39.75;;
62880;SDS011;48969;49.934;8.596;2023-02-12T11:47:43;59.83;;;40.30;;
62880;SDS011;48969;49.934;8.596;2023-02-12T11:52:48;58.80;;;40.78;;
62880;SDS011;48969;49.934;8.596;2023-02-12T11:55:20;64.05;;;42.92;;
62880;SDS011;48969;49.934;8.596;2023-02-12T11:57:53;60.28;;;41.35;;
62880;SDS011;48969;49.934;8.596;2023-02-12T12:00:29;60.60;;;42.10;;
62880;SDS011;48969;49.934;8.596;2023-02-12T12:05:21;56.53;;;39.05;;
62880;SDS011;48969;49.934;8.596;2023-02-12T12:07:51;54.47;;;37.65;;
62880;SDS011;48969;49.934;8.596;2023-02-12T12:10:19;57.47;;;39.47;;
62880;SDS011;48969;49.934;8.596;2023-02-12T12:15:16;58.13;;;39.33;;
62880;SDS011;48969;49.934;8.596;2023-02-12T12:18:05;58.72;;;39.17;;
62880;SDS011;48969;49.934;8.596;2023-02-12T12:20:57;56.25;;;38.92;;
62880;SDS011;48969;49.934;8.596;2023-02-12T12:25:58;51.75;;;36.10;;
62880;SDS011;48969;49.934;8.596;2023-02-12T12:28:32;50.33;;;36.35;;
62880;SDS011;48969;49.934;8.596;2023-02-12T12:31:16;48.40;;;35.38;;
62880;SDS011;48969;49.934;8.596;2023-02-12T12:33:49;48.25;;;33.40;;
62880;SDS011;48969;49.934;8.596;2023-02-12T12:36:28;47.72;;;35.55;;
62880;SDS011;48969;49.934;8.596;2023-02-12T12:44:23;49.83;;;35.55;;
62880;SDS011;48969;49.934;8.596;2023-02-12T12:46:59;47.90;;;34.33;;
62880;SDS011;48969;49.934;8.596;2023-02-12T12:49:37;46.78;;;34.13;;
62880;SDS011;48969;49.934;8.596;2023-02-12T12:54:46;38.25;;;29.75;;
62880;SDS011;48969;49.934;8.596;2023-02-12T12:57:22;36.90;;;28.25;;
62880;SDS011;48969;49.934;8.596;2023-02-12T12:59:54;34.50;;;27.00;;
62880;SDS011;48969;49.934;8.596;2023-02-12T13:07:41;34.45;;;25.70;;
62880;SDS011;48969;49.934;8.596;2023-02-12T13:10:32;38.20;;;27.65;;
62880;SDS011;48969;49.934;8.596;2023-02-12T13:13:02;33.55;;;25.85;;
62880;SDS011;48969;49.934;8.596;2023-02-12T13:15:32;33.38;;;25.60;;
62880;SDS011;48969;49.934;8.596;2023-02-12T13:18:27;37.60;;;28.45;;
62880;SDS011;48969;49.934;8.596;2023-02-12T13:23:24;36.42;;;26.75;;
62880;SDS011;48969;49.934;8.596;2023-02-12T13:28:23;34.08;;;26.85;;
62880;SDS011;48969;49.934;8.596;2023-02-12T13:30:50;35.25;;;26.90;;
62880;SDS011;48969;49.934;8.596;2023-02-12T13:33:20;34.10;;;26.27;;
62880;SDS011;48969;49.934;8.596;2023-02-12T13:35:47;38.33;;;27.63;;
62880;SDS011;48969;49.934;8.596;2023-02-12T13:38:18;36.20;;;27.25;;
62880;SDS011;48969;49.934;8.596;2023-02-12T13:40:44;37.10;;;27.77;;
62880;SDS011;48969;49.934;8.596;2023-02-12T13:53:34;30.77;;;24.73;;
62880;SDS011;48969;49.934;8.596;2023-02-12T13:58:47;27.65;;;21.83;;
62880;SDS011;48969;49.934;8.596;2023-02-12T14:01:33;30.02;;;23.23;;
62880;SDS011;48969;49.934;8.596;2023-02-12T14:04:32;29.63;;;23.38;;
62880;SDS011;48969;49.934;8.596;2023-02-12T14:06:53;33.25;;;24.77;;
62880;SDS011;48969;49.934;8.596;2023-02-12T14:09:20;29.85;;;23.05;;
62880;SDS011;48969;49.934;8.596;2023-02-12T14:11:49;28.10;;;22.08;;
62880;SDS011;48969;49.934;8.596;2023-02-12T14:14:25;29.95;;;24.10;;
62880;SDS011;48969;49.934;8.596;2023-02-12T14:16:51;29.35;;;23.33;;
62880;SDS011;48969;49.934;8.596;2023-02-12T14:19:40;32.65;;;25.83;;
62880;SDS011;48969;49.934;8.596;2023-02-12T14:24:51;34.28;;;26.55;;
62880;SDS011;48969;49.934;8.596;2023-02-12T14:29:58;31.45;;;23.70;;
62880;SDS011;48969;49.934;8.596;2023-02-12T14:43:45;33.42;;;26.92;;
62880;SDS011;48969;49.934;8.596;2023-02-12T14:48:54;35.72;;;28.15;;
62880;SDS011;48969;49.934;8.596;2023-02-12T14:51:21;37.50;;;27.27;;
62880;SDS011;48969;49.934;8.596;2023-02-12T14:53:47;43.55;;;33.88;;
62880;SDS011;48969;49.934;8.596;2023-02-12T14:56:15;36.60;;;28.17;;
62880;SDS011;48969;49.934;8.596;2023-02-12T14:58:42;34.92;;;27.67;;
62880;SDS011;48969;49.934;8.596;2023-02-12T15:01:09;37.47;;;28.67;;
62880;SDS011;48969;49.934;8.596;2023-02-12T15:03:39;34.88;;;28.55;;
62880;SDS011;48969;49.934;8.596;2023-02-12T15:06:22;38.53;;;29.73;;
62880;SDS011;48969;49.934;8.596;2023-02-12T15:13:53;36.42;;;30.85;;
62880;SDS011;48969;49.934;8.596;2023-02-12T15:18:55;37.92;;;30.63;;
62880;SDS011;48969;49.934;8.596;2023-02-12T15:21:29;39.33;;;31.60;;
62880;SDS011;48969;49.934;8.596;2023-02-12T15:26:27;37.65;;;30.48;;
62880;SDS011;48969;49.934;8.596;2023-02-12T15:28:53;37.90;;;30.50;;
62880;SDS011;48969;49.934;8.596;2023-02-12T15:31:19;36.50;;;30.23;;
62880;SDS011;48969;49.934;8.596;2023-02-12T15:33:47;36.50;;;29.63;;
62880;SDS011;48969;49.934;8.596;2023-02-12T15:36:16;35.95;;;30.23;;
62880;SDS011;48969;49.934;8.596;2023-02-12T15:38:42;40.05;;;30.05;;
62880;SDS011;48969;49.934;8.596;2023-02-12T15:41:08;36.08;;;29.88;;
62880;SDS011;48969;49.934;8.596;2023-02-12T15:43:34;34.97;;;28.90;;
62880;SDS011;48969;49.934;8.596;2023-02-12T15:46:01;36.15;;;28.27;;
62880;SDS011;48969;49.934;8.596;2023-02-12T15:48:30;35.30;;;28.98;;
62880;SDS011;48969;49.934;8.596;2023-02-12T15:53:40;34.50;;;27.98;;
62880;SDS011;48969;49.934;8.596;2023-02-12T15:56:09;31.35;;;26.38;;
62880;SDS011;48969;49.934;8.596;2023-02-12T15:58:37;32.05;;;26.20;;
62880;SDS011;48969;49.934;8.596;2023-02-12T16:01:06;29.73;;;24.25;;
62880;SDS011;48969;49.934;8.596;2023-02-12T16:03:32;27.88;;;23.70;;
62880;SDS011;48969;49.934;8.596;2023-02-12T16:06:08;25.85;;;22.35;;
62880;SDS011;48969;49.934;8.596;2023-02-12T16:08:35;24.80;;;21.85;;
62880;SDS011;48969;49.934;8.596;2023-02-12T16:11:01;26.92;;;22.10;;
62880;SDS011;48969;49.934;8.596;2023-02-12T16:13:37;25.02;;;21.65;;
62880;SDS011;48969;49.934;8.596;2023-02-12T16:18:37;27.17;;;22.67;;
62880;SDS011;48969;49.934;8.596;2023-02-12T16:21:03;29.40;;;22.60;;
62880;SDS011;48969;49.934;8.596;2023-02-12T16:23:28;27.35;;;22.17;;
62880;SDS011;48969;49.934;8.596;2023-02-12T16:25:54;28.45;;;22.98;;
62880;SDS011;48969;49.934;8.596;2023-02-12T16:28:25;25.75;;;21.73;;
62880;SDS011;48969;49.934;8.596;2023-02-12T16:30:51;23.77;;;20.23;;
62880;SDS011;48969;49.934;8.596;2023-02-12T16:36:02;25.98;;;20.42;;
62880;SDS011;48969;49.934;8.596;2023-02-12T16:46:06;25.80;;;21.25;;